createdAt,value
2023-03-12T00:00:49.867Z,4.50
2023-03-12T00:03:17.849Z,6.25
2023-03-12T00:05:45.952Z,4.37
2023-03-12T00:08:13.615Z,3.87
2023-03-12T00:10:41.236Z,3.53
2023-03-12T00:13:09.053Z,3.53
2023-03-12T00:15:38.319Z,3.80
2023-03-12T00:18:06.092Z,3.37
2023-03-12T00:20:33.689Z,2.72
2023-03-12T00:23:01.111Z,2.40
2023-03-12T00:25:28.737Z,2.55
2023-03-12T00:27:56.496Z,2.78
2023-03-12T00:30:23.893Z,3.47
2023-03-12T00:32:51.616Z,4.32
2023-03-12T00:35:19.005Z,3.17
2023-03-12T00:37:46.430Z,4.47
2023-03-12T00:40:14.177Z,3.53
2023-03-12T00:42:41.611Z,3.72
2023-03-12T00:45:09.287Z,5.18
2023-03-12T00:47:36.951Z,4.40
2023-03-12T00:50:04.799Z,4.55
2023-03-12T00:52:32.211Z,5.43
2023-03-12T00:54:59.845Z,4.22
2023-03-12T00:57:28.036Z,3.97
2023-03-12T00:59:55.453Z,5.22
2023-03-12T01:02:23.144Z,3.87
2023-03-12T01:04:50.496Z,3.60
2023-03-12T01:07:17.833Z,3.65
2023-03-12T01:09:45.478Z,3.85
2023-03-12T01:12:12.811Z,3.35
2023-03-12T01:14:40.160Z,4.12
2023-03-12T01:17:08.576Z,4.40
2023-03-12T01:19:36.248Z,2.90
2023-03-12T01:22:04.340Z,3.45
2023-03-12T01:24:32.292Z,4.10
2023-03-12T01:26:59.721Z,3.78
2023-03-12T01:29:27.115Z,4.05
2023-03-12T01:31:54.766Z,3.92
2023-03-12T01:34:22.282Z,3.97
2023-03-12T01:36:49.638Z,3.22
2023-03-12T01:39:17.315Z,3.53
2023-03-12T01:41:44.699Z,4.35
2023-03-12T01:44:14.612Z,3.53
2023-03-12T01:46:44.161Z,4.37
2023-03-12T01:49:23.442Z,5.35
2023-03-12T01:52:00.029Z,5.55
2023-03-12T01:54:33.373Z,5.95
2023-03-12T01:57:03.412Z,4.30
2023-03-12T01:59:38.284Z,5.03
2023-03-12T02:02:06.588Z,6.47
2023-03-12T02:04:34.847Z,4.40
2023-03-12T02:07:02.208Z,6.12
2023-03-12T02:09:33.826Z,4.20
2023-03-12T02:12:01.606Z,5.57
2023-03-12T02:14:29.247Z,5.15
2023-03-12T02:16:57.724Z,5.28
2023-03-12T02:19:50.171Z,5.18
2023-03-12T02:22:18.185Z,6.47
2023-03-12T02:25:04.501Z,4.78
2023-03-12T02:27:34.328Z,5.85
2023-03-12T02:30:03.307Z,5.95
2023-03-12T02:32:35.298Z,6.30
2023-03-12T02:35:04.464Z,4.70
2023-03-12T02:37:32.527Z,6.20
2023-03-12T02:40:08.598Z,5.80
2023-03-12T02:42:36.405Z,7.32
2023-03-12T02:45:04.014Z,6.68
2023-03-12T02:47:31.482Z,7.62
2023-03-12T02:49:59.101Z,5.70
2023-03-12T02:52:26.451Z,7.32
2023-03-12T02:54:54.314Z,7.03
2023-03-12T02:57:22.088Z,5.18
2023-03-12T02:59:49.552Z,7.28
2023-03-12T03:02:16.986Z,7.03
2023-03-12T03:04:44.777Z,5.93
2023-03-12T03:07:12.213Z,6.47
2023-03-12T03:09:39.625Z,6.97
2023-03-12T03:12:08.006Z,8.10
2023-03-12T03:14:35.946Z,6.57
2023-03-12T03:17:04.556Z,6.03
2023-03-12T03:19:32.230Z,7.40
2023-03-12T03:21:59.614Z,7.72
2023-03-12T03:24:27.064Z,8.50
2023-03-12T03:26:54.776Z,7.90
2023-03-12T03:29:22.189Z,7.87
2023-03-12T03:31:49.726Z,7.87
2023-03-12T03:34:17.436Z,8.35
2023-03-12T03:36:44.790Z,9.05
2023-03-12T03:39:12.515Z,7.40
2023-03-12T03:41:40.269Z,7.82
2023-03-12T03:44:08.055Z,8.90
2023-03-12T03:46:35.960Z,7.53
2023-03-12T03:49:04.373Z,10.13
2023-03-12T03:51:32.812Z,6.80
2023-03-12T03:54:00.707Z,7.82
2023-03-12T03:56:28.704Z,8.20
2023-03-12T03:58:58.302Z,8.55
2023-03-12T04:01:26.201Z,7.15
2023-03-12T04:03:55.322Z,7.50
2023-03-12T04:06:22.702Z,8.13
2023-03-12T04:08:50.411Z,8.63
2023-03-12T04:11:21.069Z,8.55
2023-03-12T04:13:49.683Z,8.25
2023-03-12T04:16:18.201Z,8.98
2023-03-12T04:18:46.334Z,8.43
2023-03-12T04:21:14.884Z,8.68
2023-03-12T04:23:42.450Z,9.93
2023-03-12T04:26:10.383Z,9.25
2023-03-12T04:28:38.310Z,7.43
2023-03-12T04:31:07.699Z,7.70
2023-03-12T04:33:37.573Z,10.30
2023-03-12T04:36:05.537Z,11.12
2023-03-12T04:38:33.671Z,10.40
2023-03-12T04:41:04.072Z,11.60
2023-03-12T04:43:32.134Z,10.80
2023-03-12T04:46:00.005Z,10.95
2023-03-12T04:48:28.263Z,9.55
2023-03-12T04:50:55.755Z,9.50
2023-03-12T04:53:24.152Z,10.70
2023-03-12T04:55:52.489Z,10.90
2023-03-12T04:58:20.707Z,9.90
2023-03-12T05:00:49.393Z,9.60
2023-03-12T05:03:18.121Z,11.57
2023-03-12T05:05:45.907Z,11.18
2023-03-12T05:08:13.570Z,12.80
2023-03-12T05:10:41.414Z,11.45
2023-03-12T05:13:26.752Z,12.02
2023-03-12T05:15:55.206Z,10.73
2023-03-12T05:18:22.781Z,9.50
2023-03-12T05:21:00.017Z,12.02
2023-03-12T05:23:28.346Z,12.45
2023-03-12T05:25:55.771Z,10.43
2023-03-12T05:28:27.776Z,8.48
2023-03-12T05:33:24.261Z,9.10
2023-03-12T05:35:51.756Z,10.43
2023-03-12T05:38:19.707Z,13.20
2023-03-12T05:40:54.782Z,12.40
2023-03-12T05:43:23.454Z,12.63
2023-03-12T05:45:51.260Z,10.95
2023-03-12T05:48:19.950Z,9.27
2023-03-12T05:50:49.496Z,10.07
2023-03-12T05:53:16.918Z,11.07
2023-03-12T05:55:44.362Z,9.65
2023-03-12T05:58:13.125Z,12.02
2023-03-12T06:00:41.700Z,13.50
2023-03-12T06:03:10.109Z,13.73
2023-03-12T06:05:38.157Z,10.23
2023-03-12T06:08:06.609Z,9.60
2023-03-12T06:10:34.394Z,9.65
2023-03-12T06:13:01.952Z,9.55
2023-03-12T06:15:29.393Z,10.18
2023-03-12T06:17:57.156Z,9.20
2023-03-12T06:20:24.518Z,10.45
2023-03-12T06:22:51.989Z,9.38
2023-03-12T06:25:19.639Z,8.93
2023-03-12T06:27:47.393Z,9.95
2023-03-12T06:30:15.301Z,10.10
2023-03-12T06:32:42.988Z,8.70
2023-03-12T06:35:10.496Z,8.80
2023-03-12T06:37:37.893Z,7.72
2023-03-12T06:40:09.802Z,8.23
2023-03-12T06:42:37.387Z,10.25
2023-03-12T06:45:05.828Z,9.50
2023-03-12T06:47:33.188Z,11.10
2023-03-12T06:50:00.573Z,8.55
2023-03-12T06:52:28.410Z,7.55
2023-03-12T06:54:55.830Z,10.32
2023-03-12T06:57:23.205Z,9.43
2023-03-12T06:59:51.566Z,10.48
2023-03-12T07:02:19.033Z,10.75
2023-03-12T07:04:46.779Z,9.48
2023-03-12T07:07:14.505Z,7.95
2023-03-12T07:09:41.906Z,10.55
2023-03-12T07:12:09.484Z,8.80
2023-03-12T07:14:37.141Z,10.18
2023-03-12T07:17:04.738Z,9.60
2023-03-12T07:19:32.214Z,7.40
2023-03-12T07:21:59.957Z,7.57
2023-03-12T07:24:27.408Z,7.35
2023-03-12T07:26:54.950Z,10.05
2023-03-12T07:29:22.578Z,9.25
2023-03-12T07:31:50.185Z,8.15
2023-03-12T07:34:17.716Z,10.30
2023-03-12T07:36:45.575Z,9.55
2023-03-12T07:39:13.350Z,7.50
2023-03-12T07:41:40.843Z,11.27
2023-03-12T07:44:10.907Z,11.07
2023-03-12T07:46:38.710Z,6.95
2023-03-12T07:49:06.076Z,9.18
2023-03-12T07:51:33.749Z,11.02
2023-03-12T07:54:01.126Z,9.30
2023-03-12T07:56:28.635Z,9.80
2023-03-12T07:58:56.516Z,11.85
2023-03-12T08:01:25.447Z,9.00
2023-03-12T08:03:53.200Z,8.07
2023-03-12T08:06:21.744Z,7.72
2023-03-12T08:08:49.216Z,8.18
2023-03-12T08:11:16.983Z,8.98
2023-03-12T08:13:44.448Z,8.10
2023-03-12T08:16:12.220Z,7.78
2023-03-12T08:18:40.028Z,6.90
2023-03-12T08:21:07.454Z,6.40
2023-03-12T08:23:35.674Z,6.30
2023-03-12T08:26:03.338Z,6.72
2023-03-12T08:28:30.909Z,4.80
2023-03-12T08:30:59.793Z,7.03
2023-03-12T08:33:27.554Z,7.50
2023-03-12T08:35:55.091Z,6.85
2023-03-12T08:38:22.915Z,9.93
2023-03-12T08:41:00.429Z,8.00
2023-03-12T08:43:29.435Z,5.57
2023-03-12T08:45:58.902Z,6.25
2023-03-12T08:48:26.899Z,6.18
2023-03-12T08:50:58.350Z,7.20
2023-03-12T08:53:26.793Z,5.85
2023-03-12T08:55:54.839Z,4.55
2023-03-12T08:58:23.399Z,5.65
2023-03-12T09:00:52.004Z,5.18
2023-03-12T09:03:21.582Z,6.62
2023-03-12T09:05:49.847Z,6.87
2023-03-12T09:08:17.677Z,5.35
2023-03-12T09:10:50.171Z,6.00
2023-03-12T09:13:17.861Z,6.97
2023-03-12T09:15:45.214Z,6.07
2023-03-12T09:18:12.720Z,4.60
2023-03-12T09:20:42.588Z,4.78
2023-03-12T09:23:10.213Z,5.75
2023-03-12T09:25:37.790Z,4.82
2023-03-12T09:28:05.468Z,6.57
2023-03-12T09:30:33.113Z,5.30
2023-03-12T09:33:00.530Z,5.93
2023-03-12T09:35:28.197Z,5.68
2023-03-12T09:37:55.513Z,5.78
2023-03-12T09:40:25.775Z,4.85
2023-03-12T09:42:57.549Z,5.75
2023-03-12T09:45:27.599Z,6.18
2023-03-12T09:47:57.775Z,4.97
2023-03-12T09:50:29.556Z,5.25
2023-03-12T09:53:11.417Z,4.82
2023-03-12T09:55:41.352Z,4.53
2023-03-12T09:58:34.627Z,6.40
2023-03-12T10:01:29.289Z,4.82
2023-03-12T10:04:12.321Z,4.57
2023-03-12T10:06:55.559Z,4.55
2023-03-12T10:09:23.203Z,4.65
2023-03-12T10:12:32.067Z,4.30
2023-03-12T10:15:17.990Z,4.70
2023-03-12T10:18:30.757Z,5.55
2023-03-12T10:24:10.116Z,4.22
2023-03-12T10:26:43.506Z,4.55
2023-03-12T10:29:24.560Z,5.20
2023-03-12T10:31:59.736Z,4.30
2023-03-12T10:34:53.036Z,3.95
2023-03-12T10:37:26.500Z,3.30
2023-03-12T10:40:00.208Z,3.60
2023-03-12T10:42:30.050Z,3.67
2023-03-12T10:45:10.991Z,3.55
2023-03-12T10:47:40.754Z,3.83
2023-03-12T10:50:17.390Z,3.92
2023-03-12T10:52:46.827Z,3.70
2023-03-12T10:55:21.032Z,3.10
2023-03-12T10:57:49.585Z,3.75
2023-03-12T11:00:26.005Z,3.75
2023-03-12T11:02:56.396Z,3.40
2023-03-12T11:05:27.168Z,4.75
2023-03-12T11:07:54.917Z,4.22
2023-03-12T11:10:24.676Z,3.87
2023-03-12T11:12:58.213Z,2.70
2023-03-12T11:15:28.839Z,2.25
2023-03-12T11:18:18.019Z,3.03
2023-03-12T11:20:46.087Z,3.78
2023-03-12T11:23:20.572Z,2.03
2023-03-12T11:25:56.739Z,2.12
2023-03-12T11:28:28.658Z,2.53
2023-03-12T11:30:58.167Z,3.67
2023-03-12T11:33:26.005Z,1.75
2023-03-12T11:35:58.566Z,2.10
2023-03-12T11:38:40.481Z,3.15
2023-03-12T11:41:23.193Z,3.22
2023-03-12T11:43:59.825Z,2.60
2023-03-12T11:46:31.683Z,2.30
2023-03-12T11:49:11.867Z,3.35
2023-03-12T11:52:10.457Z,2.00
2023-03-12T11:55:03.041Z,2.70
2023-03-12T11:57:58.797Z,2.15
2023-03-12T12:00:35.335Z,1.90
2023-03-12T12:03:28.127Z,1.98
2023-03-12T12:06:02.348Z,1.60
2023-03-12T12:08:39.642Z,2.85
2023-03-12T12:11:13.080Z,1.85
2023-03-12T12:13:52.852Z,2.25
2023-03-12T12:16:28.970Z,1.95
2023-03-12T12:19:18.285Z,1.70
2023-03-12T12:21:51.724Z,2.33
2023-03-12T12:25:07.583Z,2.00
2023-03-12T12:28:23.537Z,1.58
2023-03-12T12:31:15.570Z,1.95
2023-03-12T12:33:52.577Z,2.40
2023-03-12T12:36:20.257Z,2.35
2023-03-12T12:38:54.177Z,2.50
2023-03-12T12:41:26.426Z,2.50
2023-03-12T12:44:05.674Z,2.28
2023-03-12T12:46:40.074Z,2.60
2023-03-12T12:49:13.917Z,2.42
2023-03-12T12:51:48.209Z,3.42
2023-03-12T12:54:27.748Z,3.65
2023-03-12T12:57:04.156Z,2.83
2023-03-12T12:59:41.066Z,3.17
2023-03-12T13:02:21.063Z,3.15
2023-03-12T13:04:48.878Z,2.65
2023-03-12T13:07:16.428Z,3.15
2023-03-12T13:09:50.701Z,4.05
2023-03-12T13:12:20.558Z,3.62
2023-03-12T13:14:48.908Z,2.15
2023-03-12T13:17:35.307Z,2.83
2023-03-12T13:20:12.047Z,2.47
2023-03-12T13:23:14.429Z,3.25
2023-03-12T13:26:08.929Z,2.75
2023-03-12T13:29:11.389Z,2.53
2023-03-12T13:31:42.248Z,2.50
2023-03-12T13:34:12.826Z,2.40
2023-03-12T13:36:40.519Z,3.10
2023-03-12T13:39:07.828Z,2.20
2023-03-12T13:41:49.846Z,2.33
2023-03-12T13:44:23.402Z,3.17
2023-03-12T13:47:12.149Z,2.58
2023-03-12T13:49:51.476Z,2.78
2023-03-12T13:52:27.360Z,2.92
2023-03-12T13:55:28.661Z,3.58
2023-03-12T13:58:23.354Z,2.87
2023-03-12T14:01:05.969Z,1.75
2023-03-12T14:06:13.151Z,2.65
2023-03-12T14:09:01.450Z,2.22
2023-03-12T14:11:55.051Z,2.33
2023-03-12T14:14:36.809Z,2.25
2023-03-12T14:17:05.696Z,2.05
2023-03-12T14:19:35.120Z,2.10
2023-03-12T14:22:05.725Z,1.92
2023-03-12T14:24:37.331Z,1.62
2023-03-12T14:27:06.227Z,2.33
2023-03-12T14:29:39.557Z,2.95
2023-03-12T14:32:23.155Z,3.70
2023-03-12T14:34:58.894Z,2.53
2023-03-12T14:37:31.055Z,2.15
2023-03-12T14:42:31.628Z,2.28
2023-03-12T14:45:01.568Z,3.78
2023-03-12T14:47:29.059Z,2.53
2023-03-12T14:49:57.748Z,4.40
2023-03-12T14:52:30.586Z,3.17
2023-03-12T14:57:25.912Z,5.85
2023-03-12T14:59:55.385Z,4.07
2023-03-12T15:02:23.556Z,4.07
2023-03-12T15:04:55.263Z,3.05
2023-03-12T15:07:31.467Z,1.60
2023-03-12T15:09:59.378Z,2.80
2023-03-12T15:12:31.385Z,3.70
2023-03-12T15:15:07.282Z,2.10
2023-03-12T15:17:35.042Z,4.40
2023-03-12T15:20:10.444Z,3.80
2023-03-12T15:22:38.480Z,5.43
2023-03-12T15:25:25.288Z,6.82
2023-03-12T15:28:24.429Z,4.28
2023-03-12T15:31:12.329Z,2.67
2023-03-12T15:33:40.897Z,3.20
2023-03-12T15:36:14.949Z,3.22
2023-03-12T15:38:51.006Z,3.97
2023-03-12T15:41:22.357Z,4.72
2023-03-12T15:43:53.041Z,3.33
2023-03-12T15:46:20.934Z,2.45
2023-03-12T15:48:51.114Z,2.58
2023-03-12T15:51:35.071Z,3.60
2023-03-12T15:54:24.490Z,4.32
2023-03-12T15:56:51.877Z,3.90
2023-03-12T15:59:27.134Z,6.62
2023-03-12T16:01:56.563Z,5.65
2023-03-12T16:04:24.600Z,5.32
2023-03-12T16:06:53.454Z,6.75
2023-03-12T16:09:24.580Z,6.03
2023-03-12T16:11:54.050Z,7.20
2023-03-12T16:14:24.853Z,7.70
2023-03-12T16:16:53.161Z,9.25
2023-03-12T16:19:22.745Z,7.85
2023-03-12T16:21:50.403Z,8.40
2023-03-12T16:24:18.120Z,8.32
2023-03-12T16:26:52.692Z,8.85
2023-03-12T16:29:21.344Z,9.32
2023-03-12T16:31:55.135Z,12.13
2023-03-12T16:34:23.150Z,17.95
2023-03-12T16:36:50.906Z,19.92
2023-03-12T16:39:19.060Z,19.17
2023-03-12T16:41:47.235Z,19.35
2023-03-12T16:44:19.201Z,21.50
2023-03-12T16:46:47.318Z,21.52
2023-03-12T16:49:16.972Z,16.65
2023-03-12T16:51:44.389Z,19.25
2023-03-12T16:54:12.668Z,18.15
2023-03-12T16:56:45.395Z,15.95
2023-03-12T16:59:25.859Z,16.42
2023-03-12T17:01:53.502Z,20.17
2023-03-12T17:04:21.232Z,17.62
2023-03-12T17:06:48.647Z,16.02
2023-03-12T17:09:16.030Z,13.88
2023-03-12T17:11:43.675Z,18.23
2023-03-12T17:14:18.139Z,17.33
2023-03-12T17:16:45.847Z,18.17
2023-03-12T17:19:13.557Z,18.12
2023-03-12T17:21:41.211Z,24.33
2023-03-12T17:24:11.107Z,26.48
2023-03-12T17:26:38.526Z,21.48
2023-03-12T17:29:05.970Z,23.15
2023-03-12T17:31:33.681Z,20.40
2023-03-12T17:34:03.812Z,23.55
2023-03-12T17:36:31.325Z,21.75
2023-03-12T17:38:59.038Z,22.90
2023-03-12T17:41:27.393Z,20.15
2023-03-12T17:43:55.342Z,20.65
2023-03-12T17:46:23.172Z,18.58
2023-03-12T17:48:50.597Z,19.05
2023-03-12T17:51:17.993Z,18.95
2023-03-12T17:53:46.428Z,18.62
2023-03-12T17:56:15.562Z,25.92
2023-03-12T17:58:43.416Z,26.37
2023-03-12T18:01:12.695Z,33.47
2023-03-12T18:03:42.784Z,36.63
2023-03-12T18:06:11.060Z,31.58
2023-03-12T18:08:38.663Z,27.00
2023-03-12T18:11:06.491Z,34.45
2023-03-12T18:13:33.887Z,46.58
2023-03-12T18:16:01.368Z,52.58
2023-03-12T18:18:29.217Z,46.63
2023-03-12T18:20:57.067Z,42.80
2023-03-12T18:23:25.511Z,38.53
2023-03-12T18:25:53.178Z,34.97
2023-03-12T18:28:20.942Z,37.20
2023-03-12T18:30:48.685Z,36.25
2023-03-12T18:33:16.875Z,36.33
2023-03-12T18:35:44.446Z,35.80
2023-03-12T18:38:12.159Z,30.85
2023-03-12T18:40:39.820Z,34.55
2023-03-12T18:43:07.216Z,36.40
2023-03-12T18:45:34.609Z,40.08
2023-03-12T18:48:02.367Z,31.12
2023-03-12T18:50:29.793Z,39.42
2023-03-12T18:52:57.219Z,36.88
2023-03-12T18:55:24.887Z,39.53
2023-03-12T18:57:52.561Z,35.70
2023-03-12T19:00:20.115Z,33.80
2023-03-12T19:02:48.459Z,38.80
2023-03-12T19:05:16.436Z,32.75
2023-03-12T19:07:43.970Z,34.13
2023-03-12T19:10:12.572Z,29.15
2023-03-12T19:12:51.723Z,35.28
2023-03-12T19:15:22.151Z,34.83
2023-03-12T19:17:49.925Z,39.55
2023-03-12T19:20:17.545Z,39.70
2023-03-12T19:22:45.291Z,37.97
2023-03-12T19:25:12.685Z,35.33
2023-03-12T19:27:40.020Z,38.63
2023-03-12T19:30:08.444Z,34.45
2023-03-12T19:32:43.312Z,37.22
2023-03-12T19:35:13.130Z,35.67
2023-03-12T19:37:40.972Z,48.85
2023-03-12T19:40:10.567Z,51.90
2023-03-12T19:42:38.375Z,54.83
2023-03-12T19:45:06.282Z,38.90
2023-03-12T19:47:33.721Z,36.28
2023-03-12T19:50:01.352Z,28.58
2023-03-12T19:52:29.070Z,27.83
2023-03-12T19:55:04.304Z,30.42
2023-03-12T19:57:33.783Z,32.85
2023-03-12T20:00:01.560Z,28.85
2023-03-12T20:02:32.062Z,32.88
2023-03-12T20:04:59.776Z,33.38
2023-03-12T20:07:27.290Z,31.10
2023-03-12T20:09:54.708Z,28.73
2023-03-12T20:12:22.486Z,27.98
2023-03-12T20:14:49.904Z,27.30
2023-03-12T20:17:17.347Z,26.15
2023-03-12T20:19:45.055Z,27.27
2023-03-12T20:22:12.549Z,29.83
2023-03-12T20:24:39.973Z,30.35
2023-03-12T20:27:07.668Z,34.20
2023-03-12T20:29:35.299Z,25.80
2023-03-12T20:32:02.870Z,25.00
2023-03-12T20:34:30.517Z,22.30
2023-03-12T20:36:58.274Z,24.50
2023-03-12T20:39:25.677Z,23.80
2023-03-12T20:41:53.420Z,24.95
2023-03-12T20:44:20.797Z,23.25
2023-03-12T20:46:48.237Z,24.00
2023-03-12T20:49:16.181Z,25.20
2023-03-12T20:51:44.692Z,25.58
2023-03-12T20:54:12.337Z,26.35
2023-03-12T20:56:45.956Z,24.05
2023-03-12T20:59:13.334Z,23.38
2023-03-12T21:01:41.064Z,18.52
2023-03-12T21:04:08.614Z,17.87
2023-03-12T21:06:36.124Z,18.27
2023-03-12T21:09:04.014Z,24.23
2023-03-12T21:11:32.156Z,21.77
2023-03-12T21:13:59.616Z,19.87
2023-03-12T21:16:30.886Z,20.88
2023-03-12T21:18:58.350Z,17.23
2023-03-12T21:21:25.878Z,20.17
2023-03-12T21:23:53.650Z,17.48
2023-03-12T21:26:21.894Z,19.60
2023-03-12T21:28:49.318Z,18.70
2023-03-12T21:31:17.699Z,21.83
2023-03-12T21:33:45.307Z,19.20
2023-03-12T21:36:14.249Z,15.60
2023-03-12T21:38:43.086Z,15.32
2023-03-12T21:41:12.678Z,16.12
2023-03-12T21:43:40.631Z,19.25
2023-03-12T21:46:13.461Z,14.60
2023-03-12T21:48:44.245Z,11.93
2023-03-12T21:51:13.579Z,12.00
2023-03-12T21:53:41.073Z,12.77
2023-03-12T21:56:08.741Z,9.48
2023-03-12T21:58:36.494Z,7.75
2023-03-12T22:01:09.038Z,15.77
2023-03-12T22:03:37.439Z,11.07
2023-03-12T22:06:05.513Z,15.85
2023-03-12T22:08:33.701Z,10.25
2023-03-12T22:11:01.443Z,8.70
2023-03-12T22:13:28.849Z,10.00
2023-03-12T22:15:58.626Z,12.70
2023-03-12T22:18:27.335Z,12.32
2023-03-12T22:20:56.365Z,10.13
2023-03-12T22:23:25.011Z,11.32
2023-03-12T22:25:52.637Z,14.13
2023-03-12T22:28:20.270Z,10.82
2023-03-12T22:30:47.996Z,10.57
2023-03-12T22:33:15.680Z,11.55
2023-03-12T22:35:44.894Z,9.98
2023-03-12T22:38:12.696Z,10.77
2023-03-12T22:40:42.335Z,11.23
2023-03-12T22:43:13.388Z,12.25
2023-03-12T22:45:41.101Z,9.45
2023-03-12T22:48:09.497Z,11.23
2023-03-12T22:50:36.832Z,9.07
2023-03-12T22:53:04.594Z,8.50
2023-03-12T22:55:32.084Z,7.78
2023-03-12T22:57:59.474Z,12.23
2023-03-12T23:00:27.216Z,13.98
2023-03-12T23:02:54.611Z,8.82
2023-03-12T23:05:22.004Z,10.68
2023-03-12T23:07:49.931Z,13.80
2023-03-12T23:10:17.298Z,9.88
2023-03-12T23:12:44.724Z,10.38
2023-03-12T23:15:12.403Z,9.32
2023-03-12T23:17:39.857Z,8.15
2023-03-12T23:20:09.018Z,11.12
2023-03-12T23:22:36.675Z,11.02
2023-03-12T23:25:04.726Z,8.93
2023-03-12T23:27:32.261Z,10.70
2023-03-12T23:29:59.943Z,11.05
2023-03-12T23:32:27.393Z,11.80
2023-03-12T23:34:54.753Z,11.63
2023-03-12T23:37:22.502Z,9.80
2023-03-12T23:39:54.942Z,9.75
2023-03-12T23:42:22.909Z,11.95
2023-03-12T23:44:50.331Z,11.52
2023-03-12T23:47:17.688Z,14.50
2023-03-12T23:49:45.358Z,10.85
2023-03-12T23:52:12.796Z,9.68
2023-03-12T23:54:40.195Z,12.45
2023-03-12T23:57:07.887Z,12.82
2023-03-12T23:59:35.457Z,9.63
